createdAt,value
2022-12-23T00:00:39.646Z,99.1
2022-12-23T00:05:39.639Z,98.7
2022-12-23T00:10:39.646Z,98.7
2022-12-23T00:15:39.642Z,98.3
2022-12-23T00:20:39.644Z,97.8
2022-12-23T00:25:39.620Z,98.3
2022-12-23T00:30:39.609Z,98.8
2022-12-23T00:35:39.700Z,99.4
2022-12-23T00:40:39.617Z,100
2022-12-23T00:45:39.630Z,100
2022-12-23T00:50:39.615Z,100
2022-12-23T00:55:39.618Z,100
2022-12-23T01:00:39.632Z,100
2022-12-23T01:05:39.617Z,100
2022-12-23T01:10:39.575Z,99.6
2022-12-23T01:15:39.585Z,99.2
2022-12-23T01:20:39.557Z,98.9
2022-12-23T01:25:39.565Z,98.8
2022-12-23T01:30:39.574Z,98.6
2022-12-23T01:35:39.552Z,98.5
2022-12-23T01:40:39.566Z,98.3
2022-12-23T01:45:39.574Z,98.2
2022-12-23T01:50:39.541Z,98.3
2022-12-23T01:55:39.560Z,98.2
2022-12-23T02:00:39.564Z,98.5
2022-12-23T02:05:39.512Z,98.9
2022-12-23T02:10:39.537Z,99.5
2022-12-23T02:15:39.564Z,99.9
2022-12-23T02:20:39.539Z,100
2022-12-23T02:25:39.538Z,100
2022-12-23T02:30:39.719Z,100
2022-12-23T02:35:39.508Z,100
2022-12-23T02:40:39.545Z,100
2022-12-23T02:45:39.525Z,100
2022-12-23T02:50:39.495Z,100
2022-12-23T02:55:39.510Z,100
2022-12-23T03:00:39.488Z,100
2022-12-23T03:05:39.499Z,100
2022-12-23T03:10:39.486Z,100
2022-12-23T03:15:39.547Z,100
2022-12-23T03:20:39.498Z,100
2022-12-23T03:25:39.462Z,100
2022-12-23T03:35:39.458Z,100
2022-12-23T03:40:39.453Z,100
2022-12-23T03:45:40.930Z,100
2022-12-23T03:50:39.470Z,100
2022-12-23T03:55:39.448Z,100
2022-12-23T04:00:39.467Z,100
2022-12-23T04:05:39.469Z,100
2022-12-23T04:10:39.442Z,100
2022-12-23T04:15:39.471Z,100
2022-12-23T04:20:39.457Z,100
2022-12-23T04:25:39.450Z,100
2022-12-23T04:30:39.449Z,100
2022-12-23T04:35:39.428Z,100
2022-12-23T04:40:39.412Z,100
2022-12-23T04:45:39.425Z,100
2022-12-23T04:50:39.419Z,100
2022-12-23T04:55:39.408Z,100
2022-12-23T05:00:40.186Z,100
2022-12-23T05:05:39.407Z,100
2022-12-23T05:10:39.403Z,100
2022-12-23T05:15:39.384Z,100
2022-12-23T05:20:39.397Z,100
2022-12-23T05:25:39.400Z,100
2022-12-23T05:30:39.420Z,100
2022-12-23T05:35:39.371Z,100
2022-12-23T05:40:39.365Z,100
2022-12-23T05:45:39.371Z,100
2022-12-23T05:50:39.364Z,100
2022-12-23T05:55:39.359Z,100
2022-12-23T06:00:39.365Z,100
2022-12-23T06:05:39.372Z,100
2022-12-23T06:10:39.346Z,100
2022-12-23T06:15:39.340Z,100
2022-12-23T06:20:39.355Z,100
2022-12-23T06:25:39.332Z,100
2022-12-23T06:30:39.325Z,100
2022-12-23T06:35:39.332Z,100
2022-12-23T06:40:39.305Z,100
2022-12-23T06:45:39.336Z,100
2022-12-23T06:50:39.313Z,100
2022-12-23T06:55:39.312Z,100
2022-12-23T07:00:39.313Z,100
2022-12-23T07:05:39.296Z,100
2022-12-23T07:10:39.284Z,100
2022-12-23T07:15:39.295Z,100
2022-12-23T07:20:39.281Z,100
2022-12-23T07:25:39.286Z,100
2022-12-23T07:30:39.276Z,100
2022-12-23T07:35:39.266Z,100
2022-12-23T07:45:39.276Z,100
2022-12-23T07:50:39.254Z,100
2022-12-23T07:55:39.246Z,100
2022-12-23T08:00:39.250Z,100
2022-12-23T08:05:39.237Z,100
2022-12-23T08:10:44.524Z,100
2022-12-23T08:35:39.200Z,100
2022-12-23T08:45:39.213Z,100
2022-12-23T08:55:39.182Z,100
2022-12-23T09:00:39.180Z,100
2022-12-23T09:05:39.194Z,100
2022-12-23T09:10:39.203Z,99.6
2022-12-23T09:15:39.197Z,99.3
2022-12-23T09:20:39.190Z,99
2022-12-23T09:25:39.177Z,99
2022-12-23T09:30:39.173Z,99
2022-12-23T09:35:39.161Z,99.3
2022-12-23T09:40:39.139Z,99.4
2022-12-23T09:45:40.759Z,99
2022-12-23T09:50:39.135Z,98.8
2022-12-23T09:55:39.153Z,98.9
2022-12-23T10:00:39.151Z,99.1
2022-12-23T10:05:39.147Z,99
2022-12-23T10:10:39.119Z,98.6
2022-12-23T10:15:39.271Z,98.3
2022-12-23T10:20:39.147Z,98.5
2022-12-23T10:25:39.110Z,98.3
2022-12-23T10:31:17.029Z,98.2
2022-12-23T10:35:39.098Z,98.1
2022-12-23T10:40:39.095Z,98.2
2022-12-23T10:45:39.106Z,98.1
2022-12-23T10:50:39.087Z,98.4
2022-12-23T10:55:39.118Z,98.6
2022-12-23T11:00:39.131Z,98.6
2022-12-23T11:05:39.066Z,98.5
2022-12-23T11:10:39.064Z,98.5
2022-12-23T11:15:39.063Z,98.5
2022-12-23T11:20:39.033Z,98.7
2022-12-23T11:25:39.078Z,98.6
2022-12-23T11:30:39.072Z,98.6
2022-12-23T11:35:39.098Z,98.6
2022-12-23T11:40:39.045Z,98.9
2022-12-23T11:45:39.071Z,99
2022-12-23T11:50:39.028Z,98.9
2022-12-23T11:55:39.019Z,99.2
2022-12-23T12:00:39.009Z,99.5
2022-12-23T12:05:39.030Z,99.8
2022-12-23T12:10:39.022Z,99.9
2022-12-23T12:15:38.995Z,100
2022-12-23T12:20:38.992Z,100
2022-12-23T12:25:39.793Z,100
2022-12-23T12:30:39.047Z,99.4
2022-12-23T12:35:39.021Z,98.9
2022-12-23T12:40:38.966Z,98.8
2022-12-23T12:45:39.044Z,98.3
2022-12-23T12:50:38.973Z,98.3
2022-12-23T12:55:38.970Z,98
2022-12-23T13:00:38.945Z,98.3
2022-12-23T13:05:38.959Z,98.6
2022-12-23T13:10:38.923Z,98.8
2022-12-23T13:15:38.917Z,99
2022-12-23T13:20:38.952Z,99.1
2022-12-23T13:25:38.959Z,99.3
2022-12-23T13:30:38.971Z,99.5
2022-12-23T13:35:38.921Z,99.6
2022-12-23T13:40:38.925Z,99.8
2022-12-23T13:45:38.926Z,99.8
2022-12-23T13:50:38.927Z,99.9
2022-12-23T13:55:38.909Z,100
2022-12-23T14:00:38.893Z,100
2022-12-23T14:05:38.889Z,100
2022-12-23T14:10:38.909Z,100
2022-12-23T14:15:38.915Z,100
2022-12-23T14:20:38.889Z,100
2022-12-23T14:25:38.864Z,100
2022-12-23T14:30:38.892Z,100
2022-12-23T14:35:42.564Z,100
2022-12-23T14:40:38.853Z,100
2022-12-23T14:45:38.853Z,100
2022-12-23T14:50:38.850Z,100
2022-12-23T14:55:38.854Z,100
2022-12-23T15:00:38.836Z,100
2022-12-23T15:05:38.845Z,100
2022-12-23T15:10:38.820Z,100
2022-12-23T15:15:38.842Z,100
2022-12-23T15:20:38.798Z,100
2022-12-23T15:25:38.819Z,100
2022-12-23T15:30:38.824Z,100
2022-12-23T15:35:38.795Z,100
2022-12-23T15:40:38.812Z,100
2022-12-23T15:45:38.792Z,100
2022-12-23T15:50:38.787Z,100
2022-12-23T15:55:38.771Z,100
2022-12-23T16:00:38.776Z,100
2022-12-23T16:05:38.770Z,100
2022-12-23T16:10:38.791Z,100
2022-12-23T16:15:38.752Z,100
2022-12-23T16:20:38.764Z,100
2022-12-23T16:25:38.763Z,100
2022-12-23T16:30:38.771Z,100
2022-12-23T16:35:38.745Z,100
2022-12-23T16:40:38.731Z,100
2022-12-23T16:45:38.774Z,100
2022-12-23T16:50:38.745Z,100
2022-12-23T16:55:40.841Z,100
2022-12-23T17:00:38.729Z,100
2022-12-23T17:05:38.715Z,100
2022-12-23T17:10:38.699Z,100
2022-12-23T17:15:38.721Z,100
2022-12-23T17:20:38.693Z,100
2022-12-23T17:25:38.673Z,100
2022-12-23T17:30:38.691Z,100
2022-12-23T17:35:38.703Z,100
2022-12-23T17:40:38.704Z,100
2022-12-23T17:45:38.727Z,100
2022-12-23T17:50:38.655Z,100
2022-12-23T17:55:38.668Z,100
2022-12-23T18:00:38.656Z,100
2022-12-23T18:05:38.657Z,100
2022-12-23T18:10:38.670Z,100
2022-12-23T18:15:38.639Z,100
2022-12-23T18:20:38.633Z,100
2022-12-23T18:25:38.626Z,100
2022-12-23T18:30:38.649Z,100
2022-12-23T18:35:38.644Z,100
2022-12-23T18:40:38.657Z,100
2022-12-23T18:45:38.605Z,100
2022-12-23T18:50:38.604Z,100
2022-12-23T18:55:38.622Z,100
2022-12-23T19:00:38.608Z,100
2022-12-23T19:05:38.582Z,100
2022-12-23T19:10:38.623Z,100
2022-12-23T19:15:38.586Z,100
2022-12-23T19:20:38.589Z,100
2022-12-23T19:25:38.567Z,100
2022-12-23T19:30:38.635Z,100
2022-12-23T19:35:38.564Z,100
2022-12-23T19:40:38.665Z,100
2022-12-23T19:45:38.593Z,100
2022-12-23T19:50:38.562Z,100
2022-12-23T19:55:38.547Z,100
2022-12-23T20:00:38.562Z,100
2022-12-23T20:05:38.555Z,100
2022-12-23T20:10:38.535Z,100
2022-12-23T20:20:38.534Z,100
2022-12-23T20:25:38.554Z,100
2022-12-23T20:35:38.515Z,100
2022-12-23T20:40:38.514Z,100
2022-12-23T20:45:38.502Z,100
2022-12-23T20:50:38.503Z,100
2022-12-23T20:55:38.497Z,100
2022-12-23T21:00:38.474Z,100
2022-12-23T21:05:38.476Z,100
2022-12-23T21:10:38.492Z,100
2022-12-23T21:15:38.474Z,100
2022-12-23T21:20:38.466Z,100
2022-12-23T21:25:38.471Z,100
2022-12-23T21:30:38.518Z,100
2022-12-23T21:35:38.445Z,100
2022-12-23T21:40:38.447Z,100
2022-12-23T21:45:38.452Z,100
2022-12-23T21:50:38.461Z,100
2022-12-23T21:55:38.442Z,100
2022-12-23T22:00:38.466Z,100
2022-12-23T22:05:38.430Z,100
2022-12-23T22:10:38.419Z,100
2022-12-23T22:15:38.412Z,100
2022-12-23T22:20:42.623Z,100
2022-12-23T22:25:38.407Z,100
2022-12-23T22:30:38.395Z,100
2022-12-23T22:35:38.391Z,100
2022-12-23T22:40:38.394Z,100
2022-12-23T22:45:38.401Z,100
2022-12-23T22:50:38.366Z,100
2022-12-23T22:55:38.372Z,100
2022-12-23T23:00:38.368Z,100
2022-12-23T23:05:38.389Z,100
2022-12-23T23:30:38.351Z,100
2022-12-23T23:35:38.330Z,100
2022-12-23T23:45:38.385Z,100
2022-12-23T23:50:38.339Z,100
2022-12-23T23:55:38.319Z,100
